메인 페이지
METAR-TAF:

METAR-TAF

공항 :

스튜어트 국제공항

Newburgh, 뉴욕, 미국

위도: 41-30N, 경도: 074-06W, 고도: 150m

현재 날씨관측

예보는 23분 전, 15:45시(UTC)에 발표되었습니다.
서북서12kt
온도 22°C
습도 57%
기압 1013 hPa
시정: 32.2km
고도 8000ft 상공 구름 조금

METAR: KSWF 301545Z 30012KT 20SM FEW080 22/13 A2991

시각: 12:08 (16:08 UTC)

예보

예보는 1 시간 19분 전, 14:49시(UTC)에 발표되었습니다.
예보 대상 시간: 30일 15시부터 31일 18시까지 (UTC)
북서12kt
시정: 10km
고도 2500ft 상공 구름 조금
고도 8000ft 상공 구름 보통
고도 12000ft 상공 구름 보통
30일 1700시부터 (UTC)
10kt
시정: 10km
고도 4000ft 상공 구름 보통
31일 0100시부터 (UTC)
북서12kt, 순간 최대 풍속 18kt
시정: 10km
고도 25000ft 상공 구름 조금
31일 1200시부터 (UTC)
서북서14kt, 순간 최대 풍속 20kt
시정: 10km
고도 25000ft 상공 구름 조금

TAF: KSWF 301449Z 3015/3118 31012KT P6SM FEW025 SCT080 SCT120 FM301700 28010KT P6SM SCT040 FM310100 31012G18KT P6SM FEW250 FM311200 30014G20KT P6SM FEW250 AMD NOT SKED

4,000개 이상의 공항 관측 자료 및 예보 (METAR 및 TAF 보고).

지도상에서 검색 가능한 기상관측소가 노란 점과 빨간 점으로 표시되어 있습니다.

기상관측소 명을 보려면 표시 위로 마우스를 이동하세요.

날씨 관측과 예보를 보려면 클릭하세요.

지도 변경 : 확대하려면 엑스 표시가 있는 녹색 버튼, 축소하려면 빼기 표시가 있는 녹색 버튼, 다음 페이지의 지도를 보려면 녹색 화살표를 클릭하세요.


METAR-TAF: